Big Bear Station Historical Data
 
Daily Summary for April 28, 2017 Units:  English    Metric   Both
« Previous Day
Next Day »
Daily Weekly Monthly Yearly Custom
  Current: High: Low: Average:
Temperature: 55.8 °F 55.8 °F 34.3 °F 43.5 °F
Dew Point: 22.3 °F 29.7 °F 19.7 °F 23.9 °F
Humidity: 27 % 69 % 26 % 47 %
Wind Speed: 5.8 mph 9.9 mph 0.0 mph 4.5 mph
Wind Gust: -999.0 mph -999.0 mph - -
Wind:NNE - - WNW
Pressure: 23.34 in 23.35 in 23.30 in -
Precipitation: 0.00 in      
Historical Graphs
 
 
Tabular Data for April 28, 2017
Time Temperature Dew Point Pressure Wind Wind Speed Wind Gust Humidity Rainfall Rate (Hourly)
00:04 46.2 °F 29.5 °F 23.32 in NNW 9.9 mph -999.0 mph 52 % 0 in
00:20 45.9 °F 29.7 °F 23.32 in NNW 7.8 mph -999.0 mph 53 % 0 in
00:35 45.5 °F 29.4 °F 23.32 in NNE 9.4 mph -999.0 mph 53 % 0 in
00:51 45.3 °F 28.7 °F 23.32 in North 8.3 mph -999.0 mph 52 % 0 in
01:06 45.1 °F 28.0 °F 23.32 in NW 7.3 mph -999.0 mph 51 % 0 in
01:21 44.8 °F 27.8 °F 23.31 in NNE 6.8 mph -999.0 mph 51 % 0 in
01:37 43.9 °F 26.5 °F 23.31 in NW 2.2 mph -999.0 mph 50 % 0 in
01:52 43.9 °F 26.9 °F 23.31 in NE 4.2 mph -999.0 mph 51 % 0 in
02:07 43.9 °F 26.0 °F 23.31 in NNW 7.3 mph -999.0 mph 49 % 0 in
02:22 43.7 °F 25.8 °F 23.32 in North 4.2 mph -999.0 mph 49 % 0 in
02:38 43.3 °F 24.4 °F 23.31 in North 6.8 mph -999.0 mph 47 % 0 in
02:53 43.3 °F 23.4 °F 23.31 in North 9.9 mph -999.0 mph 45 % 0 in
03:08 43.7 °F 24.8 °F 23.31 in NNW 6.3 mph -999.0 mph 47 % 0 in
03:24 43.3 °F 24.4 °F 23.30 in NNW 8.3 mph -999.0 mph 47 % 0 in
03:39 42.6 °F 24.8 °F 23.30 in North 8.3 mph -999.0 mph 49 % 0 in
03:54 41.5 °F 23.8 °F 23.30 in NW 6.3 mph -999.0 mph 49 % 0 in
04:09 40.6 °F 23.9 °F 23.31 in WNW 2.7 mph -999.0 mph 51 % 0 in
04:24 39.6 °F 22.0 °F 23.32 in Calm   -999.0 mph 49 % 0 in
04:40 37.9 °F 21.4 °F 23.32 in SE 1.1 mph -999.0 mph 51 % 0 in
04:55 37.2 °F 21.2 °F 23.31 in East 1.1 mph -999.0 mph 52 % 0 in
05:11 36.7 °F 21.2 °F 23.31 in Calm   -999.0 mph 53 % 0 in
05:26 36.1 °F 22.3 °F 23.30 in Calm   -999.0 mph 57 % 0 in
05:41 35.6 °F 21.9 °F 23.30 in Calm   -999.0 mph 57 % 0 in
05:56 35.4 °F 22.5 °F 23.30 in Calm   -999.0 mph 59 % 0 in
06:11 34.9 °F 23.6 °F 23.31 in South 1.7 mph -999.0 mph 63 % 0 in
06:27 34.5 °F 23.6 °F 23.31 in Calm   -999.0 mph 64 % 0 in
06:43 34.3 °F 23.8 °F 23.32 in Calm   -999.0 mph 65 % 0 in
06:58 35.1 °F 26.0 °F 23.31 in NW 2.2 mph -999.0 mph 69 % 0 in
07:13 36.7 °F 26.8 °F 23.31 in Calm   -999.0 mph 67 % 0 in
07:28 36.7 °F 26.4 °F 23.32 in Calm   -999.0 mph 66 % 0 in
07:43 39.0 °F 25.5 °F 23.32 in NNW 2.7 mph -999.0 mph 58 % 0 in
07:59 40.8 °F 22.6 °F 23.32 in NW 4.7 mph -999.0 mph 48 % 0 in
08:14 42.3 °F 20.3 °F 23.32 in North 3.7 mph -999.0 mph 41 % 0 in
08:29 43.0 °F 20.3 °F 23.32 in NNW 4.7 mph -999.0 mph 40 % 0 in
08:45 43.7 °F 19.7 °F 23.32 in NNW 5.3 mph -999.0 mph 38 % 0 in
09:00 44.4 °F 21.6 °F 23.32 in NW 6.3 mph -999.0 mph 40 % 0 in
09:15 45.3 °F 23.5 °F 23.32 in NNW 5.8 mph -999.0 mph 42 % 0 in
09:30 45.0 °F 22.7 °F 23.32 in NNW 6.3 mph -999.0 mph 41 % 0 in
09:46 45.3 °F 23.0 °F 23.33 in NNE 4.2 mph -999.0 mph 41 % 0 in
10:01 46.2 °F 22.6 °F 23.32 in NW 5.3 mph -999.0 mph 39 % 0 in
10:16 47.1 °F 22.8 °F 23.33 in North 6.3 mph -999.0 mph 38 % 0 in
10:32 47.7 °F 22.7 °F 23.33 in North 2.2 mph -999.0 mph 37 % 0 in
10:47 48.7 °F 21.6 °F 23.34 in NNW 4.2 mph -999.0 mph 34 % 0 in
11:02 50.4 °F 23.1 °F 23.34 in NNW 4.2 mph -999.0 mph 34 % 0 in
11:18 51.4 °F 23.9 °F 23.35 in North 6.3 mph -999.0 mph 34 % 0 in
11:33 51.8 °F 24.3 °F 23.35 in NW 7.3 mph -999.0 mph 34 % 0 in
11:49 52.9 °F 23.1 °F 23.35 in NW 5.3 mph -999.0 mph 31 % 0 in
12:04 53.4 °F 21.1 °F 23.35 in NW 6.3 mph -999.0 mph 28 % 0 in
12:19 54.3 °F 22.7 °F 23.33 in NNW 5.3 mph -999.0 mph 29 % 0 in
12:34 54.0 °F 19.9 °F 23.33 in SSW 2.7 mph -999.0 mph 26 % 0 in
12:49 55.8 °F 22.3 °F 23.34 in NNE 5.8 mph -999.0 mph 27 % 0 in
Big Bear CA Weather
Compliments of Weather Underground - 1.25 mb